首页
METAR-TAF:

METAR-TAF

机场 :

干尼亞揚尼斯·達斯卡洛伊安尼斯國際機場

干尼亞, 克里特岛, 希腊

纬度: 35-29N, 经度: 024-07E, 海拔: 146米

当前天气观测

该预报发布于30分钟前的05:50 UTC
风速18节,风向西转西北,有时为28节阵风
温度 27°C
湿度 70%
气压 1006 hPa
能见度10公里或以上
少量云层高于2500英尺

METAR: LGSA 180550Z 29018G28KT 9999 FEW025 27/21 Q1006

时间: 09:20 (06:20 UTC)

预报

该预报发布于1小时和20分钟前的05:00 UTC
预报有效从18日的 06点(UTC)到 19日的 06点(UTC)
风速18节,风向西转西北,有时为28节阵风
能见度10公里或以上
少量云层高于3000英尺
成为
从 18日的 09点(UTC)到 18日的 11点(UTC)
风速15节,风向西转西北

TAF: LGSA 180500Z 1806/1906 29018G28KT 9999 FEW030 BECMG 1809/1811 29015KT

超过4000个机场的气象观测和天气预报(METAR&TAF报告)。

可查询的气象台以黄色和红色小点在地图上表示。

将鼠标移到小点上方,可查看气象台名称。

然后点击查看天气观测和预报。

如需切换地图:点击带黑十字的绿色按钮放大地图;点击带横线的绿色按钮缩小地图;或者点击绿色箭头查看邻近地区的地图。


METAR-TAF: